Time,TemperatureF,DewpointF,PressureIn,WindDirection,WindDirectionDegrees,WindSpeedMPH,WindSpeedGustMPH,Humidity,HourlyPrecipIn,Conditions,Clouds,dailyrainin,SoftwareType,DateUTC
2013-04-17 00:52:00,26.0,24.0,30.26,ENE,58,0.0,0.0,92,0.00,,,0.00,,2013-04-17 06:52:00,
2013-04-17 01:02:00,26.0,24.0,30.25,ENE,58,0.0,2.0,92,0.00,,,0.00,,2013-04-17 07:02:00,
2013-04-17 01:12:00,26.0,24.0,30.25,ENE,58,0.0,2.0,92,0.00,,,0.00,,2013-04-17 07:12:00,
2013-04-17 01:22:00,26.0,24.0,30.25,ENE,58,1.0,2.0,92,0.00,,,0.00,,2013-04-17 07:22:00,
2013-04-17 01:32:00,26.0,24.0,30.26,ENE,58,0.0,1.0,92,0.00,,,0.00,,2013-04-17 07:32:00,
2013-04-17 01:42:00,26.0,24.0,30.26,ENE,58,0.0,1.0,92,0.00,,,0.00,,2013-04-17 07:42:00,
2013-04-17 01:52:00,26.0,24.0,30.25,ENE,58,0.0,1.0,92,0.00,,,0.00,,2013-04-17 07:52:00,
2013-04-17 02:02:00,26.0,24.0,30.25,ENE,58,0.0,1.0,92,0.00,,,0.00,,2013-04-17 08:02:00,
2013-04-17 02:12:00,26.0,24.0,30.25,ENE,58,0.0,1.0,92,0.00,,,0.00,,2013-04-17 08:12:00,
2013-04-17 02:22:00,26.0,24.0,30.25,ENE,58,0.0,1.0,92,0.00,,,0.00,,2013-04-17 08:22:00,
2013-04-17 04:33:00,24.0,22.0,30.23,ENE,58,1.0,4.0,93,0.00,,,0.00,,2013-04-17 10:33:00,
2013-04-17 04:43:00,24.0,22.0,30.23,ENE,58,1.0,4.0,93,0.00,,,0.00,,2013-04-17 10:43:00,
2013-04-17 04:53:00,25.0,23.0,30.22,ENE,58,2.0,4.0,93,0.00,,,0.00,,2013-04-17 10:53:00,
2013-04-17 05:02:00,25.0,24.0,30.22,ENE,58,2.0,4.0,94,0.00,,,0.00,,2013-04-17 11:02:00,
2013-04-17 05:12:00,25.0,24.0,30.22,ENE,58,2.0,4.0,94,0.00,,,0.00,,2013-04-17 11:12:00,
2013-04-17 05:22:00,25.0,24.0,30.22,ENE,58,2.0,4.0,94,0.00,,,0.00,,2013-04-17 11:22:00,
2013-04-17 05:32:00,25.0,24.0,30.22,ENE,58,2.0,4.0,94,0.00,,,0.00,,2013-04-17 11:32:00,
2013-04-17 05:42:00,25.0,24.0,30.22,ENE,58,2.0,4.0,94,0.00,,,0.00,,2013-04-17 11:42:00,
2013-04-17 05:52:00,25.0,24.0,30.22,ENE,58,2.0,4.0,94,0.00,,,0.00,,2013-04-17 11:52:00,
2013-04-17 08:02:00,25.0,23.0,30.23,NE,53,3.0,5.0,93,0.00,,,0.00,,2013-04-17 14:02:00,
2013-04-17 08:12:00,25.0,23.0,30.23,NE,53,3.0,5.0,93,0.00,,,0.00,,2013-04-17 14:12:00,
2013-04-17 08:22:00,26.0,24.0,30.23,NE,53,2.0,4.0,93,0.00,,,0.00,,2013-04-17 14:22:00,
2013-04-17 08:32:00,26.0,24.0,30.23,NE,53,2.0,4.0,93,0.00,,,0.00,,2013-04-17 14:32:00,
2013-04-17 08:42:00,26.0,24.0,30.23,NE,53,2.0,4.0,92,0.00,,,0.00,,2013-04-17 14:42:00,
2013-04-17 08:52:00,26.0,24.0,30.23,NE,53,2.0,4.0,92,0.00,,,0.00,,2013-04-17 14:52:00,
2013-04-17 09:02:00,26.0,24.0,30.23,NE,53,2.0,4.0,92,0.00,,,0.00,,2013-04-17 15:02:00,
2013-04-17 09:12:00,26.0,24.0,30.23,NE,53,2.0,4.0,92,0.00,,,0.00,,2013-04-17 15:12:00,
2013-04-17 09:22:00,26.0,24.0,30.23,NE,53,2.0,4.0,92,0.00,,,0.00,,2013-04-17 15:22:00,
2013-04-17 12:02:00,33.0,27.0,30.21,North,350,6.0,11.0,77,0.00,,,0.02,,2013-04-17 18:02:00,
2013-04-17 12:12:00,33.0,27.0,30.21,North,350,6.0,11.0,77,0.00,,,0.02,,2013-04-17 18:12:00,
2013-04-17 12:22:00,33.0,27.0,30.21,NNW,347,8.0,13.0,78,0.00,,,0.02,,2013-04-17 18:22:00,
2013-04-17 12:32:00,33.0,27.0,30.21,NW,326,9.0,14.0,78,0.00,,,0.02,,2013-04-17 18:32:00,
2013-04-17 12:42:00,33.0,27.0,30.21,NW,326,9.0,14.0,78,0.00,,,0.02,,2013-04-17 18:42:00,
2013-04-17 12:52:00,33.0,27.0,30.21,NW,326,9.0,14.0,78,0.00,,,0.02,,2013-04-17 18:52:00,
2013-04-17 13:02:00,33.0,27.0,30.21,NW,326,9.0,14.0,78,0.00,,,0.02,,2013-04-17 19:02:00,
2013-04-17 13:12:00,33.0,27.0,30.21,NW,326,9.0,14.0,78,0.00,,,0.02,,2013-04-17 19:12:00,
2013-04-17 15:22:00,32.0,24.0,30.19,North,5,8.0,13.0,73,0.00,,,0.02,,2013-04-17 21:22:00,
2013-04-17 15:33:00,32.0,23.0,30.19,North,5,8.0,13.0,70,0.00,,,0.02,,2013-04-17 21:33:00,
2013-04-17 15:42:00,32.0,23.0,30.19,North,5,8.0,13.0,70,0.00,,,0.02,,2013-04-17 21:42:00,
2013-04-17 15:53:00,33.0,24.0,30.19,North,349,10.0,15.0,68,0.00,,,0.02,,2013-04-17 21:53:00,
2013-04-17 16:02:00,33.0,24.0,30.19,NNW,341,8.0,14.0,68,0.00,,,0.02,,2013-04-17 22:02:00,
2013-04-17 16:12:00,33.0,24.0,30.19,NNW,341,8.0,14.0,68,0.00,,,0.02,,2013-04-17 22:12:00,
2013-04-17 16:22:00,33.0,24.0,30.19,NNW,341,8.0,14.0,68,0.00,,,0.02,,2013-04-17 22:22:00,
2013-04-17 16:33:00,33.0,24.0,30.19,NNW,341,8.0,14.0,68,0.00,,,0.02,,2013-04-17 22:33:00,
2013-04-17 16:42:00,33.0,24.0,30.19,NNW,341,8.0,14.0,68,0.00,,,0.02,,2013-04-17 22:42:00,
2013-04-17 18:43:00,31.0,23.0,30.20,NNW,327,4.0,8.0,71,0.00,,,0.02,,2013-04-18 00:43:00,
2013-04-17 18:52:00,31.0,23.0,30.20,NNW,327,4.0,8.0,71,0.00,,,0.02,,2013-04-18 00:52:00,
2013-04-17 19:02:00,31.0,22.0,30.20,North,360,6.0,11.0,70,0.00,,,0.02,,2013-04-18 01:02:00,
2013-04-17 19:12:00,31.0,24.0,30.20,NNW,346,4.0,9.0,75,0.00,,,0.02,,2013-04-18 01:12:00,
2013-04-17 19:22:00,31.0,24.0,30.20,NNW,346,4.0,9.0,75,0.00,,,0.02,,2013-04-18 01:22:00,
2013-04-17 19:32:00,30.0,24.0,30.21,NNW,342,5.0,7.0,79,0.00,,,0.02,,2013-04-18 01:32:00,
2013-04-17 19:42:00,30.0,24.0,30.21,NNW,342,5.0,7.0,79,0.00,,,0.02,,2013-04-18 01:42:00,
2013-04-17 19:52:00,30.0,24.0,30.21,NNW,342,5.0,7.0,79,0.00,,,0.02,,2013-04-18 01:52:00,
2013-04-17 20:02:00,30.0,24.0,30.21,NNW,342,5.0,7.0,79,0.00,,,0.02,,2013-04-18 02:02:00,
2013-04-17 20:12:00,30.0,24.0,30.21,NNW,342,5.0,7.0,79,0.00,,,0.02,,2013-04-18 02:12:00,
2013-04-17 22:23:00,23.0,19.0,30.22,NW,304,4.0,7.0,84,0.00,,,0.02,,2013-04-18 04:23:00,
2013-04-17 22:33:00,23.0,19.0,30.21,NW,304,3.0,5.0,84,0.00,,,0.02,,2013-04-18 04:33:00,
2013-04-17 22:43:00,22.0,18.0,30.21,NW,304,3.0,5.0,84,0.00,,,0.02,,2013-04-18 04:43:00,
2013-04-17 22:53:00,22.0,18.0,30.21,NW,304,3.0,5.0,84,0.00,,,0.02,,2013-04-18 04:53:00,
2013-04-17 23:00:00,22.0,18.0,30.19,NW,304,5.0,7.0,85,0.00,,,0.02,,2013-04-18 05:00:00,
2013-04-17 23:02:00,22.0,18.0,30.20,NW,304,4.0,5.0,85,0.00,,,0.02,,2013-04-18 05:02:00,
2013-04-17 23:12:00,22.0,18.0,30.19,NW,304,5.0,7.0,85,0.00,,,0.02,,2013-04-18 05:12:00,
2013-04-17 23:22:00,22.0,18.0,30.19,NW,304,5.0,7.0,85,0.00,,,0.02,,2013-04-18 05:22:00,
2013-04-17 23:33:00,22.0,18.0,30.19,NW,304,5.0,7.0,85,0.00,,,0.02,,2013-04-18 05:33:00,
2013-04-17 23:42:00,22.0,18.0,30.19,NW,304,5.0,7.0,85,0.00,,,0.02,,2013-04-18 05:42:00,
2013-04-17 23:52:00,22.0,18.0,30.19,NW,304,5.0,7.0,85,0.00,,,0.02,,2013-04-18 05:52:00,